Time;durP1;ratioP1;P1;durP2;ratioP2;P2;SDS_P1;SDS_P2;PMS_P1;PMS_P2;Temp;Humidity;BMP_temperature;BMP_pressure;BME280_temperature;BME280_humidity;BME280_pressure;Samples;Min_cycle;Max_cycle;Signal;HPM_P1;HPM_P2
2022/09/24 00:00:10;;;;;;;;;;;;;;;17.41;68.49;100927.72;1016323;29;627;-71
2022/09/24 00:01:03;;;;;;;;;;;;;;;17.40;68.39;100921.47;1016133;29;729;-71
2022/09/24 00:01:53;;;;;;;;;;;;;;;17.46;67.83;100926.31;1016197;29;682;-71
2022/09/24 00:02:43;;;;;;;;;;;;;;;17.52;67.48;100923.03;1016073;29;674;-70
2022/09/24 00:03:34;;;;;;;;;;;;;;;17.54;68.47;100921.06;1016333;29;691;-71
2022/09/24 00:04:24;;;;;;;;;;;;;;;17.56;67.45;100927.13;1016012;29;692;-71
2022/09/24 00:05:15;;;;;;;;;;;;;;;17.57;68.41;100920.75;1018298;29;1400;-71
2022/09/24 00:06:05;;;;;;;;;;;;;;;17.53;68.45;100924.75;1020013;29;711;-72
2022/09/24 00:06:56;;;;;;;;;;;;;;;17.52;67.94;100923.03;1019960;29;776;-72
2022/09/24 00:07:46;;;;;;;;;;;;;;;17.54;67.97;100915.69;1019894;29;698;-72
2022/09/24 00:08:37;;;;;;;;;;;;;;;17.50;68.38;100925.03;1019912;29;643;-72
2022/09/24 00:09:27;;;;;;;;;;;;;;;17.53;68.77;100922.06;1019959;29;627;-72
2022/09/24 00:10:17;;;;;;;;;;;;;;;17.56;67.76;100921.75;1019940;29;628;-71
2022/09/24 00:11:10;;;;;;;;;;;;;;;17.58;68.40;100924.28;1020444;29;674;-73
2022/09/24 00:12:01;;;;;;;;;;;;;;;17.59;68.11;100924.16;1020061;29;659;-72
2022/09/24 00:12:52;;;;;;;;;;;;;;;17.57;67.66;100928.84;1020002;29;733;-72
2022/09/24 00:13:42;;;;;;;;;;;;;;;17.58;68.25;100922.47;1019900;29;762;-72
2022/09/24 00:14:32;;;;;;;;;;;;;;;17.58;68.18;100925.16;1020551;29;573;-72
2022/09/24 00:15:23;;;;;;;;;;;;;;;17.54;68.55;100922.91;1020005;29;640;-72
2022/09/24 00:16:14;;;;;;;;;;;;;;;17.55;68.12;100919.22;1019588;29;855;-72
2022/09/24 00:17:04;;;;;;;;;;;;;;;17.56;68.06;100924.44;1020092;29;623;-71
2022/09/24 00:17:54;;;;;;;;;;;;;;;17.58;67.86;100924.28;1020544;29;655;-70
2022/09/24 00:18:45;;;;;;;;;;;;;;;17.57;67.87;100920.75;1020209;29;682;-70
2022/09/24 00:19:35;;;;;;;;;;;;;;;17.55;68.45;100914.69;1020454;29;659;-71
2022/09/24 00:20:26;;;;;;;;;;;;;;;17.55;68.06;100916.53;1020050;29;671;-71
2022/09/24 00:21:16;;;;;;;;;;;;;;;17.56;68.36;100920.88;1019737;29;654;-71
2022/09/24 00:22:06;;;;;;;;;;;;;;;17.57;67.61;100918.06;1020466;29;707;-71
2022/09/24 00:22:57;;;;;;;;;;;;;;;17.57;67.99;100918.06;1020601;29;610;-71
2022/09/24 00:23:47;;;;;;;;;;;;;;;17.58;67.92;100918.91;1020446;29;646;-71
2022/09/24 00:26:56;;;;;;;;;;;;;;;17.55;67.65;100912.00;1020371;29;728;-71
2022/09/24 00:27:46;;;;;;;;;;;;;;;17.58;67.65;100916.22;1020413;29;634;-71
2022/09/24 00:28:37;;;;;;;;;;;;;;;17.58;68.02;100908.97;1020029;29;647;-71
2022/09/24 00:29:27;;;;;;;;;;;;;;;17.56;68.02;100910.97;1020309;29;722;-71
2022/09/24 00:30:18;;;;;;;;;;;;;;;17.53;68.29;100908.59;1020546;29;717;-71
2022/09/24 00:31:08;;;;;;;;;;;;;;;17.52;67.70;100908.72;1019677;29;632;-71
2022/09/24 00:31:58;;;;;;;;;;;;;;;17.54;68.49;100909.44;1019897;29;942;-71
2022/09/24 00:32:49;;;;;;;;;;;;;;;17.49;68.13;100917.09;1020533;29;658;-72
2022/09/24 00:33:39;;;;;;;;;;;;;;;17.35;68.19;100910.28;1020227;29;689;-72
2022/09/24 00:34:30;;;;;;;;;;;;;;;17.38;68.23;100907.28;1020438;29;693;-72
2022/09/24 00:35:20;;;;;;;;;;;;;;;17.44;67.90;100913.97;1019702;29;631;-71
2022/09/24 00:36:13;;;;;;;;;;;;;;;17.45;68.45;100913.81;1019957;29;639;-71
2022/09/24 00:37:04;;;;;;;;;;;;;;;17.31;68.39;100907.03;1019865;29;619;-71
2022/09/24 00:37:55;;;;;;;;;;;;;;;17.39;69.28;100908.13;1020331;29;701;-71
2022/09/24 00:38:45;;;;;;;;;;;;;;;17.44;68.18;100908.56;1019981;29;762;-71
2022/09/24 00:39:36;;;;;;;;;;;;;;;17.49;68.44;100909.84;1020371;29;686;-71
2022/09/24 00:40:27;;;;;;;;;;;;;;;17.44;68.32;100895.94;1019885;29;628;-71
2022/09/24 00:41:18;;;;;;;;;;;;;;;17.49;68.56;100906.31;1019973;29;693;-70
2022/09/24 00:42:09;;;;;;;;;;;;;;;17.44;69.12;100905.88;1019949;29;572;-71
2022/09/24 00:42:59;;;;;;;;;;;;;;;17.48;67.79;100901.91;1019882;29;688;-71
2022/09/24 00:43:50;;;;;;;;;;;;;;;17.48;68.26;100908.16;1020366;29;773;-72
2022/09/24 00:44:40;;;;;;;;;;;;;;;17.51;67.74;100902.47;1019844;29;647;-72
2022/09/24 00:45:31;;;;;;;;;;;;;;;17.48;68.60;100907.31;1019459;29;671;-72
2022/09/24 00:46:21;;;;;;;;;;;;;;;17.45;68.11;100903.03;1019653;29;680;-72
2022/09/24 00:47:12;;;;;;;;;;;;;;;17.29;69.04;100897.38;1016440;29;1895;-72
2022/09/24 00:48:02;;;;;;;;;;;;;;;17.35;68.97;100897.66;1016441;29;725;-72
2022/09/24 00:48:52;;;;;;;;;;;;;;;17.41;68.71;100904.31;1016556;29;579;-72
2022/09/24 00:49:43;;;;;;;;;;;;;;;17.33;69.26;100898.81;1016506;29;698;-71
2022/09/24 00:50:33;;;;;;;;;;;;;;;17.40;68.79;100908.00;1015858;29;609;-71
2022/09/24 00:51:24;;;;;;;;;;;;;;;17.44;68.76;100901.34;1016551;29;705;-71
2022/09/24 00:52:14;;;;;;;;;;;;;;;17.38;68.90;100896.50;1016356;29;764;-71
2022/09/24 00:53:05;;;;;;;;;;;;;;;17.34;69.54;100897.81;1016612;29;651;-71
2022/09/24 00:53:55;;;;;;;;;;;;;;;17.35;69.13;100892.28;1015728;29;684;-71
2022/09/24 00:54:45;;;;;;;;;;;;;;;17.39;69.00;100897.34;1015885;29;629;-72
2022/09/24 00:55:36;;;;;;;;;;;;;;;17.38;69.14;100896.50;1016600;29;643;-71
2022/09/24 00:56:26;;;;;;;;;;;;;;;17.37;68.85;100894.84;1015706;29;616;-72
2022/09/24 00:57:17;;;;;;;;;;;;;;;17.40;68.48;100889.13;1016387;29;1314;-71
2022/09/24 00:58:07;;;;;;;;;;;;;;;17.43;68.55;100891.56;1015894;29;761;-72
2022/09/24 00:58:58;;;;;;;;;;;;;;;17.45;68.46;100894.97;1016340;29;756;-72
2022/09/24 00:59:48;;;;;;;;;;;;;;;17.48;68.10;100891.97;1015325;29;789;-72
2022/09/24 01:00:38;;;;;;;;;;;;;;;17.40;68.60;100885.59;1015733;29;628;-72
2022/09/24 01:01:29;;;;;;;;;;;;;;;17.45;69.12;100884.19;1016669;29;679;-72
2022/09/24 01:02:19;;;;;;;;;;;;;;;17.49;68.34;100890.16;1015760;29;624;-72
2022/09/24 01:03:10;;;;;;;;;;;;;;;17.49;68.04;100885.59;1016394;29;654;-73
2022/09/24 01:04:00;;;;;;;;;;;;;;;17.36;68.85;100876.97;1015768;29;718;-72
2022/09/24 01:04:51;;;;;;;;;;;;;;;17.40;68.46;100882.91;1019846;29;658;-73
2022/09/24 01:05:41;;;;;;;;;;;;;;;17.45;68.15;100884.19;1021046;29;665;-72
2022/09/24 01:06:32;;;;;;;;;;;;;;;17.32;69.03;100878.25;1016741;29;544;-73
2022/09/24 01:07:24;;;;;;;;;;;;;;;17.35;69.17;100875.28;1015913;29;1910;-72
2022/09/24 01:08:14;;;;;;;;;;;;;;;17.40;68.14;100883.75;1016398;29;651;-72
2022/09/24 01:09:05;;;;;;;;;;;;;;;17.46;68.16;100885.03;1016225;29;608;-72
2022/09/24 01:09:55;;;;;;;;;;;;;;;17.46;68.46;100885.88;1016381;29;742;-72
2022/09/24 01:10:49;;;;;;;;;;;;;;;17.48;67.91;100883.91;1016451;29;671;-71
2022/09/24 01:11:40;;;;;;;;;;;;;;;17.47;67.85;100881.34;1016467;29;698;-72
2022/09/24 01:12:30;;;;;;;;;;;;;;;17.49;68.85;100888.31;1016314;29;918;-71
2022/09/24 01:13:21;;;;;;;;;;;;;;;17.49;67.90;100882.91;1016246;29;652;-71
2022/09/24 01:14:11;;;;;;;;;;;;;;;17.40;68.48;100872.97;1016064;29;608;-72
2022/09/24 01:15:01;;;;;;;;;;;;;;;17.44;68.41;100877.09;1016288;29;579;-72
2022/09/24 01:15:52;;;;;;;;;;;;;;;17.46;68.47;100877.81;1016493;29;671;-72
2022/09/24 01:16:42;;;;;;;;;;;;;;;17.50;68.62;100884.63;1016371;29;726;-71
2022/09/24 01:17:33;;;;;;;;;;;;;;;17.51;68.61;100874.69;1016369;29;663;-72
2022/09/24 01:18:25;;;;;;;;;;;;;;;17.51;68.35;100870.16;1016372;29;710;-72
2022/09/24 01:19:17;;;;;;;;;;;;;;;17.51;68.60;100878.22;1016245;29;703;-72
2022/09/24 01:20:07;;;;;;;;;;;;;;;17.47;67.93;100871.41;1016526;29;922;-72
2022/09/24 01:20:58;;;;;;;;;;;;;;;17.43;68.78;100867.31;1016349;29;623;-71
2022/09/24 01:21:49;;;;;;;;;;;;;;;17.44;69.01;100869.00;1016403;29;702;-72
2022/09/24 01:22:40;;;;;;;;;;;;;;;17.45;68.98;100869.84;1016349;29;690;-72
2022/09/24 01:23:30;;;;;;;;;;;;;;;17.44;68.41;100874.41;1016333;29;615;-72
2022/09/24 01:24:21;;;;;;;;;;;;;;;17.47;68.51;100870.56;1016458;29;664;-71
2022/09/24 01:25:12;;;;;;;;;;;;;;;17.50;68.01;100870.28;1016246;29;722;-71
2022/09/24 01:26:02;;;;;;;;;;;;;;;17.49;67.94;100869.44;1016450;29;647;-71
2022/09/24 01:26:54;;;;;;;;;;;;;;;17.48;68.76;100865.03;1016313;29;595;-71
2022/09/24 01:27:44;;;;;;;;;;;;;;;17.49;68.27;100872.13;1016292;29;600;-72
2022/09/24 01:28:35;;;;;;;;;;;;;;;17.49;68.42;100866.75;1016065;29;696;-72
2022/09/24 01:29:25;;;;;;;;;;;;;;;17.50;68.00;100863.06;1017080;29;624;-72
2022/09/24 01:30:16;;;;;;;;;;;;;;;17.50;68.39;100863.06;1016582;29;760;-72
2022/09/24 01:31:06;;;;;;;;;;;;;;;17.51;67.68;100863.91;1016348;29;658;-71
2022/09/24 01:32:00;;;;;;;;;;;;;;;17.51;68.38;100862.06;1016264;29;648;-70
2022/09/24 01:32:51;;;;;;;;;;;;;;;17.50;68.43;100857.66;1016457;29;655;-71
2022/09/24 01:33:41;;;;;;;;;;;;;;;17.50;68.85;100863.06;1016206;29;778;-71
2022/09/24 01:34:32;;;;;;;;;;;;;;;17.50;67.76;100857.66;1016483;29;872;-71
2022/09/24 01:35:23;;;;;;;;;;;;;;;17.49;68.90;100858.66;1016204;29;678;-71
2022/09/24 01:36:13;;;;;;;;;;;;;;;17.47;68.45;100855.25;1016275;29;731;-71
2022/09/24 01:37:04;;;;;;;;;;;;;;;17.46;68.40;100861.63;1016383;29;647;-70
2022/09/24 01:37:54;;;;;;;;;;;;;;;17.41;68.43;100857.66;1016356;29;727;-72
2022/09/24 01:38:44;;;;;;;;;;;;;;;17.42;68.60;100854.81;1016376;29;580;-72
2022/09/24 01:39:35;;;;;;;;;;;;;;;17.41;68.85;100853.13;1016327;29;690;-72
2022/09/24 01:40:25;;;;;;;;;;;;;;;17.44;68.11;100858.22;1016225;29;710;-71
2022/09/24 01:41:16;;;;;;;;;;;;;;;17.41;68.76;100857.66;1016440;29;682;-71
2022/09/24 01:42:06;;;;;;;;;;;;;;;17.42;68.28;100857.53;1016178;29;614;-71
2022/09/24 01:42:57;;;;;;;;;;;;;;;17.45;68.77;100849.16;1016458;29;702;-71
2022/09/24 01:43:47;;;;;;;;;;;;;;;17.43;68.20;100851.13;1016261;29;622;-71
2022/09/24 01:44:43;;;;;;;;;;;;;;;17.44;68.59;100852.84;1016306;29;635;-71
2022/09/24 01:45:33;;;;;;;;;;;;;;;17.44;68.16;100852.00;1016226;29;563;-71
2022/09/24 01:46:23;;;;;;;;;;;;;;;17.40;68.94;100846.03;1016251;29;694;-71
2022/09/24 01:47:14;;;;;;;;;;;;;;;17.42;68.06;100849.44;1019741;29;1899;-71
2022/09/24 01:48:04;;;;;;;;;;;;;;;17.46;68.38;100845.47;1019502;29;623;-71
2022/09/24 01:48:55;;;;;;;;;;;;;;;17.46;68.37;100840.09;1020307;29;667;-71
2022/09/24 01:49:45;;;;;;;;;;;;;;;17.47;67.91;100844.47;1019814;29;1069;-71
2022/09/24 01:50:36;;;;;;;;;;;;;;;17.48;68.65;100848.88;1019675;29;627;-72
2022/09/24 01:51:26;;;;;;;;;;;;;;;17.47;68.58;100847.19;1019869;29;654;-71
2022/09/24 01:52:17;;;;;;;;;;;;;;;17.46;68.89;100845.47;1019526;29;701;-71
2022/09/24 01:53:08;;;;;;;;;;;;;;;17.46;68.54;100845.47;1019670;29;611;-71
2022/09/24 01:53:59;;;;;;;;;;;;;;;17.45;68.70;100843.78;1020334;29;687;-71
2022/09/24 01:54:51;;;;;;;;;;;;;;;17.47;67.95;100844.47;1019658;29;643;-71
2022/09/24 01:55:41;;;;;;;;;;;;;;;17.43;68.12;100842.22;1019844;29;643;-71
2022/09/24 01:56:32;;;;;;;;;;;;;;;17.42;69.13;100844.06;1023870;29;654;-71
2022/09/24 01:57:22;;;;;;;;;;;;;;;17.33;69.20;100847.63;1024787;28;1275;-72
2022/09/24 01:58:13;;;;;;;;;;;;;;;17.37;68.77;100840.97;1020804;28;647;-71
2022/09/24 01:59:03;;;;;;;;;;;;;;;17.41;68.84;100836.09;1023744;29;686;-72
2022/09/24 01:59:54;;;;;;;;;;;;;;;17.44;68.20;100841.22;1024968;28;701;-71
2022/09/24 02:00:44;;;;;;;;;;;;;;;17.39;68.69;100838.09;1019855;29;635;-71
2022/09/24 02:01:34;;;;;;;;;;;;;;;17.40;68.93;100835.25;1019613;29;607;-72
2022/09/24 02:02:26;;;;;;;;;;;;;;;17.43;68.71;100834.97;1019638;29;673;-71
2022/09/24 02:03:16;;;;;;;;;;;;;;;17.45;67.94;100841.06;1019600;29;672;-72
2022/09/24 02:04:07;;;;;;;;;;;;;;;17.45;67.97;100837.53;1019734;29;658;-72
2022/09/24 02:04:58;;;;;;;;;;;;;;;17.46;68.43;100834.69;1019433;29;1407;-72
2022/09/24 02:05:49;;;;;;;;;;;;;;;17.46;68.29;100834.69;1020775;29;643;-72
2022/09/24 02:06:39;;;;;;;;;;;;;;;17.48;68.13;100837.25;1019470;29;592;-71
2022/09/24 02:07:30;;;;;;;;;;;;;;;17.45;68.12;100826.75;1020651;29;1971;-72
2022/09/24 02:08:21;;;;;;;;;;;;;;;17.48;68.15;100843.47;1020716;29;658;-72
2022/09/24 02:09:11;;;;;;;;;;;;;;;17.45;68.16;100838.38;1020799;29;676;-72
2022/09/24 02:10:01;;;;;;;;;;;;;;;17.46;68.30;100837.38;1020496;29;670;-72
2022/09/24 02:10:52;;;;;;;;;;;;;;;17.46;68.45;100834.69;1021485;29;729;-72
2022/09/24 02:11:42;;;;;;;;;;;;;;;17.45;68.62;100833.00;1017253;29;555;-72
2022/09/24 02:12:33;;;;;;;;;;;;;;;17.37;69.22;100829.34;1018312;29;621;-71
2022/09/24 02:13:23;;;;;;;;;;;;;;;17.40;69.16;100831.72;1021280;29;1164;-72
2022/09/24 02:14:14;;;;;;;;;;;;;;;17.38;68.63;100831.03;1020011;29;1078;-71
2022/09/24 02:15:05;;;;;;;;;;;;;;;17.42;68.58;100833.28;1020720;29;1053;-71
2022/09/24 02:15:55;;;;;;;;;;;;;;;17.42;68.97;100827.88;1019718;29;1132;-71
2022/09/24 02:16:46;;;;;;;;;;;;;;;17.45;68.12;100837.53;1017779;29;1098;-70
2022/09/24 02:17:36;;;;;;;;;;;;;;;17.38;69.11;100825.66;1020915;29;1076;-70
2022/09/24 02:18:27;;;;;;;;;;;;;;;17.43;68.43;100823.34;1017861;29;1105;-70
2022/09/24 02:19:17;;;;;;;;;;;;;;;17.43;68.17;100823.34;1019296;29;974;-71
2022/09/24 02:20:07;;;;;;;;;;;;;;;17.44;69.21;100825.91;1017821;29;1117;-72
2022/09/24 02:20:58;;;;;;;;;;;;;;;17.44;68.41;100828.59;1020884;29;1081;-71
2022/09/24 02:21:48;;;;;;;;;;;;;;;17.43;68.79;100829.59;1017948;29;1082;-71
2022/09/24 02:22:39;;;;;;;;;;;;;;;17.42;69.32;100822.50;1020907;29;1124;-70
2022/09/24 02:23:29;;;;;;;;;;;;;;;17.43;69.21;100826.91;1020631;29;1205;-71
2022/09/24 02:24:20;;;;;;;;;;;;;;;17.45;69.04;100824.91;1019531;29;1192;-71
2022/09/24 02:25:10;;;;;;;;;;;;;;;17.42;68.19;100827.88;1016974;29;1112;-71
2022/09/24 02:26:01;;;;;;;;;;;;;;;17.38;68.76;100829.16;1017426;29;1053;-72
2022/09/24 02:26:51;;;;;;;;;;;;;;;17.34;68.97;100820.53;1018112;29;1057;-72
2022/09/24 02:27:42;;;;;;;;;;;;;;;17.38;68.88;100820.25;1019658;29;1090;-72
2022/09/24 02:28:32;;;;;;;;;;;;;;;17.39;68.74;100820.09;1016946;29;1081;-72
2022/09/24 02:29:22;;;;;;;;;;;;;;;17.38;68.55;100823.78;1017801;29;1061;-72
2022/09/24 02:30:13;;;;;;;;;;;;;;;17.39;68.74;100820.09;1018592;29;1066;-72
2022/09/24 02:31:04;;;;;;;;;;;;;;;17.40;69.22;100824.47;1020015;29;1093;-72
2022/09/24 02:31:54;;;;;;;;;;;;;;;17.42;69.41;100825.19;1016805;29;1057;-72
2022/09/24 02:32:45;;;;;;;;;;;;;;;17.36;68.96;100825.78;1020151;29;1113;-72
2022/09/24 02:34:46;;;;;;;;;;;;;;;17.39;68.52;100822.78;1020629;29;1097;-72
2022/09/24 02:35:39;;;;;;;;;;;;;;;17.42;68.65;100825.19;1020360;29;1110;-72
2022/09/24 02:36:30;;;;;;;;;;;;;;;17.43;68.69;100823.34;1021243;29;1131;-72
2022/09/24 02:37:20;;;;;;;;;;;;;;;17.41;69.28;100815.41;1020090;29;1128;-72
2022/09/24 02:38:11;;;;;;;;;;;;;;;17.41;69.00;100820.78;1020776;29;981;-72
2022/09/24 02:39:02;;;;;;;;;;;;;;;17.43;68.74;100817.97;1019557;29;1140;-71
2022/09/24 02:39:52;;;;;;;;;;;;;;;17.41;69.33;100819.94;1019644;29;1113;-71
2022/09/24 02:40:43;;;;;;;;;;;;;;;17.31;69.00;100818.13;1019612;29;1109;-71
2022/09/24 02:41:33;;;;;;;;;;;;;;;17.36;69.11;100823.09;1016958;29;1139;-71
2022/09/24 02:42:23;;;;;;;;;;;;;;;17.37;69.17;100819.41;1020042;29;1143;-71
2022/09/24 02:43:14;;;;;;;;;;;;;;;17.27;69.08;100821.25;1016829;29;1057;-71
2022/09/24 02:44:04;;;;;;;;;;;;;;;17.33;69.12;100818.00;1023674;29;1100;-71
2022/09/24 02:44:56;;;;;;;;;;;;;;;17.36;69.13;100817.72;1023793;29;1052;-71
2022/09/24 02:45:46;;;;;;;;;;;;;;;17.39;69.17;100812.00;1020850;29;1176;-71
2022/09/24 02:46:40;;;;;;;;;;;;;;;17.41;68.93;100817.25;1020813;29;1126;-71
2022/09/24 02:47:30;;;;;;;;;;;;;;;17.41;69.06;100815.41;1019967;29;1911;-72
2022/09/24 02:48:21;;;;;;;;;;;;;;;17.40;68.80;100816.41;1020592;29;1101;-72
2022/09/24 02:49:11;;;;;;;;;;;;;;;17.41;68.70;100811.88;1021189;29;1088;-72
2022/09/24 02:50:02;;;;;;;;;;;;;;;17.40;68.65;100819.09;1019638;29;1077;-71
2022/09/24 02:50:52;;;;;;;;;;;;;;;17.42;69.01;100818.94;1019506;29;1117;-71
2022/09/24 02:51:43;;;;;;;;;;;;;;;17.40;69.39;100812.84;1020767;29;1116;-71
2022/09/24 02:52:33;;;;;;;;;;;;;;;17.40;68.79;100807.47;1019700;29;1045;-71
2022/09/24 02:53:24;;;;;;;;;;;;;;;17.39;69.04;100806.63;1019690;29;1120;-71
2022/09/24 02:54:14;;;;;;;;;;;;;;;17.38;68.93;100810.31;1015514;29;1074;-71
2022/09/24 02:55:05;;;;;;;;;;;;;;;17.39;69.30;100812.00;1015617;29;1074;-71
2022/09/24 02:55:56;;;;;;;;;;;;;;;17.40;68.69;100819.09;1018922;29;1049;-71
2022/09/24 02:56:46;;;;;;;;;;;;;;;17.38;69.22;100810.31;1020200;29;1156;-72
2022/09/24 02:57:37;;;;;;;;;;;;;;;17.38;68.68;100810.31;1019852;29;1062;-72
2022/09/24 02:58:27;;;;;;;;;;;;;;;17.41;68.43;100807.31;1017672;29;1176;-71
2022/09/24 02:59:18;;;;;;;;;;;;;;;17.39;68.79;100812.00;1020594;29;1100;-71
2022/09/24 03:00:08;;;;;;;;;;;;;;;17.39;68.82;100814.69;1017814;29;1187;-71
2022/09/24 03:00:59;;;;;;;;;;;;;;;17.32;68.85;100808.22;1020195;29;600;-72
2022/09/24 03:01:49;;;;;;;;;;;;;;;17.35;69.05;100810.63;1020226;29;879;-71
2022/09/24 03:02:39;;;;;;;;;;;;;;;17.35;69.08;100805.22;1020710;29;638;-72
2022/09/24 03:03:30;;;;;;;;;;;;;;;17.35;69.48;100807.94;1020293;29;721;-71
2022/09/24 03:04:20;;;;;;;;;;;;;;;17.38;68.67;100814.88;1019902;29;1112;-71
2022/09/24 03:05:11;;;;;;;;;;;;;;;17.37;69.30;100813.16;1019859;29;1113;-71
2022/09/24 03:06:01;;;;;;;;;;;;;;;17.29;69.28;100808.50;1021115;29;1005;-73
2022/09/24 03:06:52;;;;;;;;;;;;;;;17.24;69.67;100816.13;1020797;29;1116;-71
2022/09/24 03:07:42;;;;;;;;;;;;;;;17.27;69.33;100811.31;1018023;29;1910;-71
2022/09/24 03:08:34;;;;;;;;;;;;;;;17.29;69.05;100806.66;1020703;29;1072;-71
2022/09/24 03:09:24;;;;;;;;;;;;;;;17.33;69.36;100804.53;1020175;29;1089;-71
2022/09/24 03:10:14;;;;;;;;;;;;;;;17.33;69.19;100807.22;1015470;29;1086;-70
2022/09/24 03:11:05;;;;;;;;;;;;;;;17.34;69.01;100798.16;1016604;29;1160;-71
2022/09/24 03:11:59;;;;;;;;;;;;;;;17.37;69.06;100805.09;1019626;29;1104;-71
2022/09/24 03:12:50;;;;;;;;;;;;;;;17.36;69.20;100801.53;1018083;29;1061;-71
2022/09/24 03:13:40;;;;;;;;;;;;;;;17.37;68.38;100803.25;1019939;29;1140;-71
2022/09/24 03:14:31;;;;;;;;;;;;;;;17.39;68.75;100806.63;1019797;29;1097;-71
2022/09/24 03:15:21;;;;;;;;;;;;;;;17.37;69.04;100803.25;1020039;29;1101;-71
2022/09/24 03:16:11;;;;;;;;;;;;;;;17.38;69.42;100804.91;1018605;29;1077;-72
2022/09/24 03:17:02;;;;;;;;;;;;;;;17.35;68.78;100802.53;1020611;29;1093;-72
2022/09/24 03:17:52;;;;;;;;;;;;;;;17.34;69.17;100801.69;1019936;29;1061;-72
2022/09/24 03:18:43;;;;;;;;;;;;;;;17.36;69.31;100796.16;1017576;29;1188;-71
2022/09/24 03:19:33;;;;;;;;;;;;;;;17.37;68.92;100805.94;1016836;29;684;-71
2022/09/24 03:20:24;;;;;;;;;;;;;;;17.38;68.66;100794.13;1016644;29;750;-71
2022/09/24 03:21:14;;;;;;;;;;;;;;;17.40;68.93;100807.47;1016333;29;650;-71
2022/09/24 03:22:04;;;;;;;;;;;;;;;17.38;68.75;100802.22;1017306;29;603;-72
2022/09/24 03:22:55;;;;;;;;;;;;;;;17.38;68.81;100804.91;1016734;29;631;-71
2022/09/24 03:23:45;;;;;;;;;;;;;;;17.33;68.62;100797.28;1017029;29;718;-72
2022/09/24 03:24:36;;;;;;;;;;;;;;;17.31;68.46;100801.13;1016296;29;719;-71
2022/09/24 03:25:26;;;;;;;;;;;;;;;17.33;69.39;100797.28;1017392;29;710;-72
2022/09/24 03:26:17;;;;;;;;;;;;;;;17.34;69.44;100798.16;1017316;29;611;-72
2022/09/24 03:27:07;;;;;;;;;;;;;;;17.35;69.39;100805.22;1021361;29;662;-72
2022/09/24 03:27:57;;;;;;;;;;;;;;;17.37;68.68;100799.69;1021566;29;669;-71
2022/09/24 03:28:48;;;;;;;;;;;;;;;17.37;68.98;100797.88;1017252;29;682;-71
2022/09/24 03:31:00;;;;;;;;;;;;;;;17.39;68.50;100795.84;1016734;29;636;-72
2022/09/24 03:31:50;;;;;;;;;;;;;;;17.37;68.92;100794.31;1016889;29;556;-72
2022/09/24 03:32:41;;;;;;;;;;;;;;;17.38;68.90;100804.09;1016638;29;652;-72
2022/09/24 03:33:31;;;;;;;;;;;;;;;17.37;68.58;100797.88;1016808;29;658;-72
2022/09/24 03:34:21;;;;;;;;;;;;;;;17.37;69.42;100797.00;1017200;29;682;-72
2022/09/24 03:35:12;;;;;;;;;;;;;;;17.35;69.08;100794.47;1016758;29;671;-72
2022/09/24 03:36:03;;;;;;;;;;;;;;;17.36;68.24;100796.16;1016804;29;644;-72
2022/09/24 03:36:53;;;;;;;;;;;;;;;17.35;68.40;100798.00;1016728;29;830;-72
2022/09/24 03:37:44;;;;;;;;;;;;;;;17.34;68.69;100795.44;1017345;29;663;-71
2022/09/24 03:38:34;;;;;;;;;;;;;;;17.33;68.70;100801.81;1017288;29;682;-71
2022/09/24 03:39:25;;;;;;;;;;;;;;;17.34;68.66;100798.16;1016243;29;682;-72
2022/09/24 03:40:15;;;;;;;;;;;;;;;17.34;68.72;100801.69;1016908;29;615;-71
2022/09/24 03:41:06;;;;;;;;;;;;;;;17.26;69.02;100796.16;1016583;29;755;-72
2022/09/24 03:41:56;;;;;;;;;;;;;;;17.26;68.94;100795.31;1017348;29;705;-72
2022/09/24 03:42:46;;;;;;;;;;;;;;;17.26;69.44;100798.84;1016653;29;685;-72
2022/09/24 03:43:37;;;;;;;;;;;;;;;17.28;69.08;100799.56;1017199;29;675;-72
2022/09/24 03:44:27;;;;;;;;;;;;;;;17.32;69.41;100808.22;1016728;29;635;-72
2022/09/24 03:45:18;;;;;;;;;;;;;;;17.32;69.02;100808.22;1016587;29;634;-72
2022/09/24 03:46:08;;;;;;;;;;;;;;;17.33;68.55;100802.69;1016857;29;666;-72
2022/09/24 03:46:59;;;;;;;;;;;;;;;17.34;68.70;100807.06;1019614;29;1242;-73
2022/09/24 03:47:49;;;;;;;;;;;;;;;17.31;68.44;100801.97;1020111;29;774;-72
2022/09/24 03:48:40;;;;;;;;;;;;;;;17.33;68.77;100804.53;1020129;29;634;-72
2022/09/24 03:49:30;;;;;;;;;;;;;;;17.34;68.90;100804.38;1024210;29;712;-72
2022/09/24 03:50:20;;;;;;;;;;;;;;;17.32;68.71;100802.81;1025336;28;683;-72
2022/09/24 03:51:11;;;;;;;;;;;;;;;17.34;68.77;100803.53;1019699;29;723;-72
2022/09/24 03:52:01;;;;;;;;;;;;;;;17.32;69.01;100800.13;1020631;29;797;-72
2022/09/24 03:52:52;;;;;;;;;;;;;;;17.33;68.86;100796.44;1020050;29;638;-72
2022/09/24 03:53:42;;;;;;;;;;;;;;;17.33;68.92;100801.81;1020107;29;680;-71
2022/09/24 03:54:33;;;;;;;;;;;;;;;17.35;68.99;100799.84;1020059;29;662;-71
2022/09/24 03:55:23;;;;;;;;;;;;;;;17.35;69.17;100806.09;1020167;29;627;-71
2022/09/24 03:56:14;;;;;;;;;;;;;;;17.34;69.27;100799.00;1019897;29;634;-71
2022/09/24 03:57:04;;;;;;;;;;;;;;;17.35;69.11;100805.22;1020168;29;611;-71
2022/09/24 03:57:54;;;;;;;;;;;;;;;17.33;69.05;100802.69;1012564;29;721;-72
2022/09/24 03:58:46;;;;;;;;;;;;;;;17.32;68.61;100797.44;1013307;29;643;-71
2022/09/24 03:59:37;;;;;;;;;;;;;;;17.35;69.49;100802.53;1012954;29;611;-72
2022/09/24 04:00:27;;;;;;;;;;;;;;;17.34;68.39;100799.00;1012469;29;640;-72
2022/09/24 04:01:19;;;;;;;;;;;;;;;17.34;69.49;100800.84;1012788;29;635;-72
2022/09/24 04:02:10;;;;;;;;;;;;;;;17.35;68.95;100805.22;1012631;29;650;-72
2022/09/24 04:03:00;;;;;;;;;;;;;;;17.34;68.90;100798.16;1013215;29;706;-72
2022/09/24 04:03:51;;;;;;;;;;;;;;;17.33;68.65;100796.44;1013234;29;694;-71
2022/09/24 04:04:41;;;;;;;;;;;;;;;17.33;68.56;100801.81;1013103;29;561;-72
2022/09/24 04:05:32;;;;;;;;;;;;;;;17.33;69.08;100796.44;1010090;29;608;-72
2022/09/24 04:06:25;;;;;;;;;;;;;;;17.33;68.34;100791.06;1009812;29;699;-72
2022/09/24 04:07:16;;;;;;;;;;;;;;;17.34;68.98;100787.38;1009927;29;648;-71
2022/09/24 04:08:06;;;;;;;;;;;;;;;17.33;68.43;100786.50;1009397;29;671;-72
2022/09/24 04:08:57;;;;;;;;;;;;;;;17.35;68.98;100789.06;1009461;29;547;-72
2022/09/24 04:09:47;;;;;;;;;;;;;;;17.34;68.25;100782.84;1009570;29;588;-72
2022/09/24 04:10:37;;;;;;;;;;;;;;;17.34;68.93;100790.06;1009269;29;1023;-72
2022/09/24 04:11:28;;;;;;;;;;;;;;;17.34;68.84;100796.31;1009453;29;643;-72
2022/09/24 04:12:19;;;;;;;;;;;;;;;17.34;69.17;100793.59;1009317;29;597;-71
2022/09/24 04:13:10;;;;;;;;;;;;;;;17.34;68.26;100790.91;1009415;29;694;-73
2022/09/24 04:14:00;;;;;;;;;;;;;;;17.32;68.45;100798.28;1009413;29;643;-73
2022/09/24 04:14:51;;;;;;;;;;;;;;;17.34;68.86;100793.59;1009285;29;624;-71
2022/09/24 04:15:41;;;;;;;;;;;;;;;17.34;68.85;100792.75;1009462;29;640;-71
2022/09/24 04:16:32;;;;;;;;;;;;;;;17.32;68.53;100789.34;1008929;29;713;-71
2022/09/24 04:17:22;;;;;;;;;;;;;;;17.32;68.91;100789.34;1009069;29;651;-72
2022/09/24 04:18:13;;;;;;;;;;;;;;;17.30;68.61;100788.66;1009179;29;776;-71
2022/09/24 04:19:03;;;;;;;;;;;;;;;17.31;68.92;100793.88;1009333;29;674;-71
2022/09/24 04:19:54;;;;;;;;;;;;;;;17.32;68.93;100789.34;1009440;29;635;-72
2022/09/24 04:20:44;;;;;;;;;;;;;;;17.31;68.44;100793.03;1009286;29;731;-71
2022/09/24 04:21:34;;;;;;;;;;;;;;;17.31;68.99;100798.44;1009241;29;616;-71
2022/09/24 04:22:26;;;;;;;;;;;;;;;17.33;68.46;100796.44;1009388;29;679;-71
2022/09/24 04:23:16;;;;;;;;;;;;;;;17.34;68.71;100787.38;1009240;29;639;-71
2022/09/24 04:24:07;;;;;;;;;;;;;;;17.32;69.20;100787.50;1009393;29;639;-71
2022/09/24 04:24:57;;;;;;;;;;;;;;;17.32;69.37;100783.97;1009239;29;699;-71
2022/09/24 04:25:48;;;;;;;;;;;;;;;17.30;68.38;100789.50;1009918;29;687;-71
2022/09/24 04:26:38;;;;;;;;;;;;;;;17.31;69.21;100787.66;1009308;29;676;-71
2022/09/24 04:27:29;;;;;;;;;;;;;;;17.29;69.55;100786.94;1009195;29;1974;-71
2022/09/24 04:28:20;;;;;;;;;;;;;;;17.28;68.87;100780.69;1009353;29;695;-71
2022/09/24 04:29:12;;;;;;;;;;;;;;;17.30;68.81;100788.66;1009165;29;717;-71
2022/09/24 04:30:02;;;;;;;;;;;;;;;17.29;68.51;100787.78;1009316;29;719;-71
2022/09/24 04:30:53;;;;;;;;;;;;;;;17.28;69.53;100782.53;1008996;29;624;-72